Airfield :
LOGIN :

Register | Disclaimer

   EN    FR    IT 

 










Legend :    VFR   Marginal VFR   IFR   Intensive IFR   Very Intensive IFR
Visi :
Ceiling :
>= 8 km
>= 3000ft
5 to 8 km
1000 to 3000 ft
1500m to 5 km
500 to 1000 ft
800 to 1500m
200 to 500 ft
< 800m
< 200 ft
Symbols :   Thunderstorms  Fog  Heavy snow  Heavy precipitations  Wind > 20 kt
SIGMETs :     Misc.  Thunderstorms  Icing  Turbulence  Mountain Waves  Volcanic Ashes






- Airport Elevation : 622 ft
- IATA code : BRS


EGGD - Bristol Int.

CURRENT METAR :
  • 021020Z 28008KT 260V320 1500 -RA BR BKN003 BKN008 13/12 Q1017 RERA REDZ

EXPIRED METARs :
  • 020950Z AUTO 26007KT 190V280 2000 R27/1400U +RA BKN002 OVC007 13/12 Q1017 REDZ
  • 020920Z 17009KT 6000 1800W -RA SCT006 BKN009 14/13 Q1017
  • 020850Z AUTO 18011KT 160V230 9999 BKN010/// BKN016/// OVC033/// //////TCU 14/12 Q1017
  • 020820Z AUTO 19012KT 9999 BKN011 BKN017 OVC029 14/12 Q1017
  • 012150Z AUTO 19006KT 170V250 9999 NCD 12/09 Q1018
  • 020750Z AUTO 19012KT 160V250 9999 OVC010 14/12 Q1017

TAF AMD TAF EGGD
Valid from the 02 at 09:00 until the 03 at 06:00 UTC


020955Z 0209/0306 24010KT 9999 BKN010
TEMPO 0209/0211 3000 RADZ BR BKN003
PROB30
TEMPO 0209/0211 1200 DZRA OVC001
BECMG 0211/0214 SCT022
PROB30
TEMPO 0211/0217 7000 SHRA
PROB40 0303/0306 8000 -RA BKN010
ATIS : +44 1275 473 666



MET'MAP, your aeronautical weather chart ! - Copyright ORBIFLY December 2007 - Disclaimer

ORBIFLY MET'MAP TEAM :

Programming & Development : Alexandra Zaïnal
Original concept : Baudouin d'Aumeries
Technical & hardware support : Manuel Goepfert
Assistance : Marc-Olivier Méhu




SOURCES & CREDITS :

   NOAA